sensor_id;sensor_type;location;lat;lon;timestamp;pressure;altitude;pressure_sealevel;temperature;humidity
4410;BME280;2218;51.408;7.208;2022-12-18T00:02:22;100879.06;;;17.52;25.12
4410;BME280;2218;51.408;7.208;2022-12-18T00:04:49;100880.03;;;17.50;25.04
4410;BME280;2218;51.408;7.208;2022-12-18T00:07:16;100887.03;;;17.51;25.19
4410;BME280;2218;51.408;7.208;2022-12-18T00:09:43;100885.31;;;17.50;25.33
4410;BME280;2218;51.408;7.208;2022-12-18T00:12:10;100885.31;;;17.50;25.41
4410;BME280;2218;51.408;7.208;2022-12-18T00:14:36;100898.59;;;17.47;25.25
4410;BME280;2218;51.408;7.208;2022-12-18T00:17:03;100899.53;;;17.46;25.12
4410;BME280;2218;51.408;7.208;2022-12-18T00:19:31;100903.91;;;17.45;25.31
4410;BME280;2218;51.408;7.208;2022-12-18T00:21:58;100900.41;;;17.45;25.60
4410;BME280;2218;51.408;7.208;2022-12-18T00:24:25;100907.44;;;17.44;25.31
4410;BME280;2218;51.408;7.208;2022-12-18T00:26:52;100901.34;;;17.44;25.60
4410;BME280;2218;51.408;7.208;2022-12-18T00:29:20;100907.53;;;17.43;25.34
4410;BME280;2218;51.408;7.208;2022-12-18T00:31:46;100903.19;;;17.42;25.21
4410;BME280;2218;51.408;7.208;2022-12-18T00:34:13;100895.34;;;17.40;25.34
4410;BME280;2218;51.408;7.208;2022-12-18T00:36:42;100898.06;;;17.39;25.13
4410;BME280;2218;51.408;7.208;2022-12-18T00:39:10;100896.34;;;17.38;25.24
4410;BME280;2218;51.408;7.208;2022-12-18T00:41:37;100893.66;;;17.39;25.32
4410;BME280;2218;51.408;7.208;2022-12-18T00:44:22;100899.84;;;17.38;25.38
4410;BME280;2218;51.408;7.208;2022-12-18T00:46:50;100892.88;;;17.37;25.50
4410;BME280;2218;51.408;7.208;2022-12-18T00:49:19;100896.34;;;17.38;25.01
4410;BME280;2218;51.408;7.208;2022-12-18T00:51:48;100889.41;;;17.37;25.30
4410;BME280;2218;51.408;7.208;2022-12-18T00:54:16;100895.63;;;17.34;25.29
4410;BME280;2218;51.408;7.208;2022-12-18T00:56:44;100891.22;;;17.35;25.33
4410;BME280;2218;51.408;7.208;2022-12-18T00:59:11;100897.41;;;17.34;25.36
4410;BME280;2218;51.408;7.208;2022-12-18T01:01:38;100897.47;;;17.32;25.14
4410;BME280;2218;51.408;7.208;2022-12-18T01:04:05;100894.91;;;17.30;25.30
4410;BME280;2218;51.408;7.208;2022-12-18T01:06:32;100887.03;;;17.30;25.19
4410;BME280;2218;51.408;7.208;2022-12-18T01:09:01;100881.81;;;17.29;25.38
4410;BME280;2218;51.408;7.208;2022-12-18T01:11:28;100885.38;;;17.28;25.81
4410;BME280;2218;51.408;7.208;2022-12-18T01:13:55;100894.00;;;17.31;25.36
4410;BME280;2218;51.408;7.208;2022-12-18T01:16:25;100899.09;;;17.35;25.04
4410;BME280;2218;51.408;7.208;2022-12-18T01:18:52;100898.91;;;17.39;24.91
4410;BME280;2218;51.408;7.208;2022-12-18T01:21:21;100901.34;;;17.44;25.01
4410;BME280;2218;51.408;7.208;2022-12-18T01:23:51;100893.19;;;17.50;24.65
4410;BME280;2218;51.408;7.208;2022-12-18T01:26:20;100894.84;;;17.52;25.03
4410;BME280;2218;51.408;7.208;2022-12-18T01:28:47;100903.47;;;17.56;24.97
4410;BME280;2218;51.408;7.208;2022-12-18T01:31:18;100905.00;;;17.60;24.93
4410;BME280;2218;51.408;7.208;2022-12-18T01:33:49;100910.06;;;17.65;24.90
4410;BME280;2218;51.408;7.208;2022-12-18T01:36:20;100904.81;;;17.65;24.83
4410;BME280;2218;51.408;7.208;2022-12-18T01:38:48;100902.00;;;17.69;24.63
4410;BME280;2218;51.408;7.208;2022-12-18T01:41:19;100899.31;;;17.71;25.02
4410;BME280;2218;51.408;7.208;2022-12-18T01:43:53;100903.72;;;17.70;24.77
4410;BME280;2218;51.408;7.208;2022-12-18T01:46:26;100896.56;;;17.74;24.03
4410;BME280;2218;51.408;7.208;2022-12-18T01:48:59;100893.94;;;17.74;24.63
4410;BME280;2218;51.408;7.208;2022-12-18T01:51:28;100891.09;;;17.78;24.52
4410;BME280;2218;51.408;7.208;2022-12-18T01:53:58;100886.78;;;17.77;24.68
4410;BME280;2218;51.408;7.208;2022-12-18T01:56:26;100889.41;;;17.77;24.79
4410;BME280;2218;51.408;7.208;2022-12-18T01:59:01;100877.09;;;17.78;24.26
4410;BME280;2218;51.408;7.208;2022-12-18T02:01:30;100883.94;;;17.82;24.58
4410;BME280;2218;51.408;7.208;2022-12-18T02:04:20;100869.09;;;17.81;24.53
4410;BME280;2218;51.408;7.208;2022-12-18T02:06:55;100874.19;;;17.84;24.43
4410;BME280;2218;51.408;7.208;2022-12-18T02:09:34;100875.03;;;17.85;24.33
4410;BME280;2218;51.408;7.208;2022-12-18T02:12:13;100882.03;;;17.86;24.04
4410;BME280;2218;51.408;7.208;2022-12-18T02:14:54;100876.78;;;17.86;24.09
4410;BME280;2218;51.408;7.208;2022-12-18T02:17:28;100893.31;;;17.88;24.50
4410;BME280;2218;51.408;7.208;2022-12-18T02:20:10;100891.63;;;17.87;24.45
4410;BME280;2218;51.408;7.208;2022-12-18T02:22:54;100881.03;;;17.88;24.36
4410;BME280;2218;51.408;7.208;2022-12-18T02:25:43;100887.13;;;17.89;24.35
4410;BME280;2218;51.408;7.208;2022-12-18T02:28:19;100886.28;;;17.88;24.65
4410;BME280;2218;51.408;7.208;2022-12-18T02:30:49;100880.19;;;17.88;24.39
4410;BME280;2218;51.408;7.208;2022-12-18T02:33:20;100871.34;;;17.89;24.44
4410;BME280;2218;51.408;7.208;2022-12-18T02:35:53;100870.50;;;17.88;24.23
4410;BME280;2218;51.408;7.208;2022-12-18T02:38:23;100865.16;;;17.90;24.23
4410;BME280;2218;51.408;7.208;2022-12-18T02:40:54;100861.69;;;17.89;24.30
4410;BME280;2218;51.408;7.208;2022-12-18T02:43:23;100862.50;;;17.91;24.33
4410;BME280;2218;51.408;7.208;2022-12-18T02:45:54;100866.06;;;17.90;24.57
4410;BME280;2218;51.408;7.208;2022-12-18T02:48:25;100869.38;;;17.94;24.27
4410;BME280;2218;51.408;7.208;2022-12-18T02:51:03;100878.91;;;17.96;24.28
4410;BME280;2218;51.408;7.208;2022-12-18T02:53:43;100879.75;;;17.97;24.46
4410;BME280;2218;51.408;7.208;2022-12-18T02:56:17;100884.19;;;17.96;23.90
4410;BME280;2218;51.408;7.208;2022-12-18T02:58:58;100868.41;;;17.96;24.15
4410;BME280;2218;51.408;7.208;2022-12-18T03:01:53;100873.69;;;17.95;24.39
4410;BME280;2218;51.408;7.208;2022-12-18T03:04:30;100874.59;;;17.95;24.24
4410;BME280;2218;51.408;7.208;2022-12-18T03:07:07;100876.34;;;17.95;24.19
4410;BME280;2218;51.408;7.208;2022-12-18T03:09:40;100872.84;;;17.94;23.86
4410;BME280;2218;51.408;7.208;2022-12-18T03:12:18;100869.38;;;17.94;23.91
4410;BME280;2218;51.408;7.208;2022-12-18T03:15:00;100868.53;;;17.93;24.12
4410;BME280;2218;51.408;7.208;2022-12-18T03:17:32;100869.38;;;17.94;24.23
4410;BME280;2218;51.408;7.208;2022-12-18T03:20:07;100866.75;;;17.94;24.13
4410;BME280;2218;51.408;7.208;2022-12-18T03:22:38;100863.25;;;17.93;24.04
4410;BME280;2218;51.408;7.208;2022-12-18T03:25:09;100866.81;;;17.92;24.08
4410;BME280;2218;51.408;7.208;2022-12-18T03:27:41;100873.00;;;17.91;24.22
4410;BME280;2218;51.408;7.208;2022-12-18T03:30:15;100866.81;;;17.92;24.14
4410;BME280;2218;51.408;7.208;2022-12-18T03:32:50;100856.31;;;17.92;23.59
4410;BME280;2218;51.408;7.208;2022-12-18T03:35:28;100855.44;;;17.92;23.98
4410;BME280;2218;51.408;7.208;2022-12-18T03:37:56;100856.38;;;17.91;24.13
4410;BME280;2218;51.408;7.208;2022-12-18T03:40:33;100861.63;;;17.91;24.27
4410;BME280;2218;51.408;7.208;2022-12-18T03:43:09;100848.50;;;17.91;24.31
4410;BME280;2218;51.408;7.208;2022-12-18T03:45:49;100846.75;;;17.90;24.48
4410;BME280;2218;51.408;7.208;2022-12-18T03:48:27;100846.75;;;17.90;24.48
4410;BME280;2218;51.408;7.208;2022-12-18T03:51:06;100857.28;;;17.90;24.22
4410;BME280;2218;51.408;7.208;2022-12-18T03:53:43;100865.16;;;17.90;24.13
4410;BME280;2218;51.408;7.208;2022-12-18T03:56:16;100860.84;;;17.89;24.55
4410;BME280;2218;51.408;7.208;2022-12-18T03:58:47;100851.25;;;17.88;24.30
4410;BME280;2218;51.408;7.208;2022-12-18T04:01:30;100863.47;;;17.89;24.28
4410;BME280;2218;51.408;7.208;2022-12-18T04:04:01;100856.50;;;17.88;23.95
4410;BME280;2218;51.408;7.208;2022-12-18T04:06:37;100853.88;;;17.88;24.39
4410;BME280;2218;51.408;7.208;2022-12-18T04:09:06;100846.91;;;17.87;24.03
4410;BME280;2218;51.408;7.208;2022-12-18T04:11:37;100853.88;;;17.88;24.58
4410;BME280;2218;51.408;7.208;2022-12-18T04:14:08;100856.50;;;17.88;24.17
4410;BME280;2218;51.408;7.208;2022-12-18T04:16:37;100851.31;;;17.86;24.25
4410;BME280;2218;51.408;7.208;2022-12-18T04:19:07;100854.81;;;17.87;24.24
4410;BME280;2218;51.408;7.208;2022-12-18T04:21:38;100854.81;;;17.87;24.32
4410;BME280;2218;51.408;7.208;2022-12-18T04:24:06;100857.44;;;17.87;24.55
4410;BME280;2218;51.408;7.208;2022-12-18T04:26:36;100853.88;;;17.88;24.49
4410;BME280;2218;51.408;7.208;2022-12-18T04:29:18;100852.19;;;17.87;24.22
4410;BME280;2218;51.408;7.208;2022-12-18T04:31:48;100853.03;;;17.87;24.14
4410;BME280;2218;51.408;7.208;2022-12-18T04:34:16;100855.66;;;17.87;24.13
4410;BME280;2218;51.408;7.208;2022-12-18T04:36:48;100851.25;;;17.88;24.20
4410;BME280;2218;51.408;7.208;2022-12-18T04:39:19;100846.84;;;17.88;24.23
4410;BME280;2218;51.408;7.208;2022-12-18T04:41:48;100844.22;;;17.88;23.92
4410;BME280;2218;51.408;7.208;2022-12-18T04:44:15;100845.06;;;17.89;24.29
4410;BME280;2218;51.408;7.208;2022-12-18T04:46:42;100854.72;;;17.88;24.19
4410;BME280;2218;51.408;7.208;2022-12-18T04:49:10;100845.06;;;17.89;24.08
4410;BME280;2218;51.408;7.208;2022-12-18T04:51:38;100852.94;;;17.89;24.39
4410;BME280;2218;51.408;7.208;2022-12-18T04:54:05;100846.00;;;17.88;24.31
4410;BME280;2218;51.408;7.208;2022-12-18T04:56:32;100850.31;;;17.89;24.23
4410;BME280;2218;51.408;7.208;2022-12-18T04:58:59;100838.09;;;17.88;24.24
4410;BME280;2218;51.408;7.208;2022-12-18T05:01:26;100842.50;;;17.87;24.53
4410;BME280;2218;51.408;7.208;2022-12-18T05:03:53;100840.72;;;17.88;24.41
4410;BME280;2218;51.408;7.208;2022-12-18T05:06:21;100838.09;;;17.88;24.19
4410;BME280;2218;51.408;7.208;2022-12-18T05:08:48;100837.25;;;17.87;24.19
4410;BME280;2218;51.408;7.208;2022-12-18T05:11:15;100831.13;;;17.87;23.89
4410;BME280;2218;51.408;7.208;2022-12-18T05:13:44;100833.75;;;17.87;24.21
4410;BME280;2218;51.408;7.208;2022-12-18T05:16:12;100823.25;;;17.87;24.13
4410;BME280;2218;51.408;7.208;2022-12-18T05:18:40;100826.72;;;17.87;24.04
4410;BME280;2218;51.408;7.208;2022-12-18T05:21:07;100813.66;;;17.86;24.26
4410;BME280;2218;51.408;7.208;2022-12-18T05:23:38;100817.13;;;17.86;24.01
4410;BME280;2218;51.408;7.208;2022-12-18T05:26:06;100812.72;;;17.87;23.91
4410;BME280;2218;51.408;7.208;2022-12-18T05:28:36;100810.09;;;17.87;24.32
4410;BME280;2218;51.408;7.208;2022-12-18T05:31:04;100811.03;;;17.86;24.14
4410;BME280;2218;51.408;7.208;2022-12-18T05:33:34;100797.00;;;17.85;24.16
4410;BME280;2218;51.408;7.208;2022-12-18T05:36:04;100806.63;;;17.86;24.45
4410;BME280;2218;51.408;7.208;2022-12-18T05:38:33;100798.72;;;17.86;24.06
4410;BME280;2218;51.408;7.208;2022-12-18T05:41:02;100802.13;;;17.88;24.13
4410;BME280;2218;51.408;7.208;2022-12-18T05:43:29;100810.09;;;17.87;24.16
4410;BME280;2218;51.408;7.208;2022-12-18T05:45:56;100810.09;;;17.87;24.13
4410;BME280;2218;51.408;7.208;2022-12-18T05:48:23;100823.16;;;17.88;24.41
4410;BME280;2218;51.408;7.208;2022-12-18T05:50:51;100810.94;;;17.87;23.91
4410;BME280;2218;51.408;7.208;2022-12-18T05:53:20;100827.56;;;17.88;23.86
4410;BME280;2218;51.408;7.208;2022-12-18T05:55:47;100830.22;;;17.88;24.04
4410;BME280;2218;51.408;7.208;2022-12-18T05:58:16;100834.53;;;17.89;24.16
4410;BME280;2218;51.408;7.208;2022-12-18T06:00:45;100838.94;;;17.88;24.13
4410;BME280;2218;51.408;7.208;2022-12-18T06:03:13;100832.84;;;17.88;24.41
4410;BME280;2218;51.408;7.208;2022-12-18T06:05:43;100825.88;;;17.87;23.88
4410;BME280;2218;51.408;7.208;2022-12-18T06:08:11;100840.72;;;17.88;23.86
4410;BME280;2218;51.408;7.208;2022-12-18T06:10:39;100844.22;;;17.88;24.03
4410;BME280;2218;51.408;7.208;2022-12-18T06:13:07;100853.88;;;17.88;24.11
4410;BME280;2218;51.408;7.208;2022-12-18T06:15:37;100853.03;;;17.87;23.95
4410;BME280;2218;51.408;7.208;2022-12-18T06:18:04;100848.63;;;17.88;24.24
4410;BME280;2218;51.408;7.208;2022-12-18T06:20:31;100860.06;;;17.87;24.07
4410;BME280;2218;51.408;7.208;2022-12-18T06:22:58;100878.47;;;17.87;24.09
4410;BME280;2218;51.408;7.208;2022-12-18T06:25:25;100878.47;;;17.87;23.88
4410;BME280;2218;51.408;7.208;2022-12-18T06:27:52;100880.25;;;17.86;24.12
4410;BME280;2218;51.408;7.208;2022-12-18T06:30:20;100883.75;;;17.87;24.08
4410;BME280;2218;51.408;7.208;2022-12-18T06:32:49;100873.22;;;17.87;24.14
4410;BME280;2218;51.408;7.208;2022-12-18T06:35:16;100871.50;;;17.86;24.22
4410;BME280;2218;51.408;7.208;2022-12-18T06:37:43;100881.09;;;17.87;23.89
4410;BME280;2218;51.408;7.208;2022-12-18T06:40:10;100879.41;;;17.86;23.65
4410;BME280;2218;51.408;7.208;2022-12-18T06:42:37;100876.78;;;17.86;23.97
4410;BME280;2218;51.408;7.208;2022-12-18T06:45:05;100873.25;;;17.85;23.99
4410;BME280;2218;51.408;7.208;2022-12-18T06:47:32;100870.59;;;17.87;23.95
4410;BME280;2218;51.408;7.208;2022-12-18T06:50:00;100863.63;;;17.86;24.06
4410;BME280;2218;51.408;7.208;2022-12-18T06:52:27;100862.69;;;17.87;23.97
4410;BME280;2218;51.408;7.208;2022-12-18T06:54:54;100856.50;;;17.88;23.96
4410;BME280;2218;51.408;7.208;2022-12-18T06:57:21;100858.28;;;17.87;23.88
4410;BME280;2218;51.408;7.208;2022-12-18T06:59:48;100848.63;;;17.88;23.94
4410;BME280;2218;51.408;7.208;2022-12-18T07:02:15;100848.63;;;17.88;23.65
4410;BME280;2218;51.408;7.208;2022-12-18T07:04:42;100846.00;;;17.88;23.86
4410;BME280;2218;51.408;7.208;2022-12-18T07:07:10;100842.50;;;17.87;23.73
4410;BME280;2218;51.408;7.208;2022-12-18T07:09:37;100838.09;;;17.88;23.47
4410;BME280;2218;51.408;7.208;2022-12-18T07:12:04;100831.13;;;17.87;23.82
4410;BME280;2218;51.408;7.208;2022-12-18T07:14:32;100832.00;;;17.87;23.82
4410;BME280;2218;51.408;7.208;2022-12-18T07:16:59;100832.84;;;17.88;24.13
4410;BME280;2218;51.408;7.208;2022-12-18T07:19:26;100831.13;;;17.87;23.87
4410;BME280;2218;51.408;7.208;2022-12-18T07:21:53;100830.22;;;17.88;23.90
4410;BME280;2218;51.408;7.208;2022-12-18T07:24:21;100826.72;;;17.87;24.06
4410;BME280;2218;51.408;7.208;2022-12-18T07:26:48;100832.84;;;17.88;23.48
4410;BME280;2218;51.408;7.208;2022-12-18T07:29:15;100827.56;;;17.88;23.96
4410;BME280;2218;51.408;7.208;2022-12-18T07:31:42;100827.66;;;17.86;23.84
4410;BME280;2218;51.408;7.208;2022-12-18T07:34:11;100821.47;;;17.87;23.70
4410;BME280;2218;51.408;7.208;2022-12-18T07:36:38;100815.34;;;17.87;23.80
4410;BME280;2218;51.408;7.208;2022-12-18T07:39:05;100814.50;;;17.86;23.53
4410;BME280;2218;51.408;7.208;2022-12-18T07:41:33;100811.81;;;17.88;23.79
4410;BME280;2218;51.408;7.208;2022-12-18T07:44:09;100809.09;;;17.89;23.77
4410;BME280;2218;51.408;7.208;2022-12-18T07:46:36;100803.78;;;17.91;23.60
4410;BME280;2218;51.408;7.208;2022-12-18T07:49:03;100802.00;;;17.91;23.65
4410;BME280;2218;51.408;7.208;2022-12-18T07:51:30;100796.75;;;17.91;23.64
4410;BME280;2218;51.408;7.208;2022-12-18T07:53:57;100797.59;;;17.92;23.44
4410;BME280;2218;51.408;7.208;2022-12-18T07:56:24;100807.09;;;17.94;23.59
4410;BME280;2218;51.408;7.208;2022-12-18T07:58:53;100802.69;;;17.95;23.58
4410;BME280;2218;51.408;7.208;2022-12-18T08:01:20;100807.06;;;17.96;23.57
4410;BME280;2218;51.408;7.208;2022-12-18T08:03:47;100815.78;;;17.96;23.34
4410;BME280;2218;51.408;7.208;2022-12-18T08:06:13;100807.81;;;17.98;23.63
4410;BME280;2218;51.408;7.208;2022-12-18T08:08:40;100809.53;;;17.99;23.59
4410;BME280;2218;51.408;7.208;2022-12-18T08:11:08;100810.44;;;17.98;23.74
4410;BME280;2218;51.408;7.208;2022-12-18T08:13:35;100803.31;;;18.00;23.70
4410;BME280;2218;51.408;7.208;2022-12-18T08:16:06;100805.09;;;17.99;23.42
4410;BME280;2218;51.408;7.208;2022-12-18T08:18:34;100809.53;;;17.99;23.46
4410;BME280;2218;51.408;7.208;2022-12-18T08:21:08;100802.44;;;18.01;23.61
4410;BME280;2218;51.408;7.208;2022-12-18T08:23:36;100796.31;;;18.00;23.40
4410;BME280;2218;51.408;7.208;2022-12-18T08:26:03;100790.13;;;18.01;23.47
4410;BME280;2218;51.408;7.208;2022-12-18T08:28:30;100785.78;;;18.00;23.45
4410;BME280;2218;51.408;7.208;2022-12-18T08:30:57;100783.09;;;18.02;23.43
4410;BME280;2218;51.408;7.208;2022-12-18T08:33:25;100772.56;;;18.02;23.41
4410;BME280;2218;51.408;7.208;2022-12-18T08:35:52;100773.41;;;18.02;23.40
4410;BME280;2218;51.408;7.208;2022-12-18T08:38:19;100770.78;;;18.02;23.66
4410;BME280;2218;51.408;7.208;2022-12-18T08:40:46;100774.25;;;18.03;23.48
4410;BME280;2218;51.408;7.208;2022-12-18T08:43:13;100762.03;;;18.02;23.10
4410;BME280;2218;51.408;7.208;2022-12-18T08:45:58;100764.66;;;18.02;23.40
4410;BME280;2218;51.408;7.208;2022-12-18T08:48:26;100763.75;;;18.03;23.51
4410;BME280;2218;51.408;7.208;2022-12-18T08:50:56;100763.75;;;18.03;23.40
4410;BME280;2218;51.408;7.208;2022-12-18T08:53:27;100763.75;;;18.03;23.46
4410;BME280;2218;51.408;7.208;2022-12-18T08:55:57;100761.09;;;18.03;23.42
4410;BME280;2218;51.408;7.208;2022-12-18T08:58:24;100764.59;;;18.03;22.99
4410;BME280;2218;51.408;7.208;2022-12-18T09:00:51;100763.75;;;18.03;23.40
4410;BME280;2218;51.408;7.208;2022-12-18T09:03:19;100758.47;;;18.03;23.38
4410;BME280;2218;51.408;7.208;2022-12-18T09:05:50;100769.00;;;18.03;23.21
4410;BME280;2218;51.408;7.208;2022-12-18T09:08:16;100765.53;;;18.02;23.33
4410;BME280;2218;51.408;7.208;2022-12-18T09:10:45;100768.06;;;18.04;23.60
4410;BME280;2218;51.408;7.208;2022-12-18T09:13:13;100765.44;;;18.04;23.46
4410;BME280;2218;51.408;7.208;2022-12-18T09:15:41;100760.19;;;18.04;23.57
4410;BME280;2218;51.408;7.208;2022-12-18T09:18:09;100760.19;;;18.04;23.39
4410;BME280;2218;51.408;7.208;2022-12-18T09:20:36;100751.34;;;18.05;23.30
4410;BME280;2218;51.408;7.208;2022-12-18T09:23:06;100745.25;;;18.04;23.27
4410;BME280;2218;51.408;7.208;2022-12-18T09:25:34;100740.84;;;18.05;23.34
4410;BME280;2218;51.408;7.208;2022-12-18T09:28:01;100736.44;;;18.05;23.14
4410;BME280;2218;51.408;7.208;2022-12-18T09:30:29;100743.47;;;18.05;23.32
4410;BME280;2218;51.408;7.208;2022-12-18T09:32:56;100753.97;;;18.05;23.55
4410;BME280;2218;51.408;7.208;2022-12-18T09:35:23;100740.84;;;18.05;23.33
4410;BME280;2218;51.408;7.208;2022-12-18T09:37:49;100736.44;;;18.05;23.16
4410;BME280;2218;51.408;7.208;2022-12-18T09:40:21;100732.94;;;18.05;23.06
4410;BME280;2218;51.408;7.208;2022-12-18T09:42:54;100742.56;;;18.06;23.48
4410;BME280;2218;51.408;7.208;2022-12-18T09:45:23;100720.66;;;18.05;23.06
4410;BME280;2218;51.408;7.208;2022-12-18T09:47:52;100725.94;;;18.05;23.20
4410;BME280;2218;51.408;7.208;2022-12-18T09:50:27;100731.19;;;18.05;23.16
4410;BME280;2218;51.408;7.208;2022-12-18T09:53:02;100735.56;;;18.05;23.06
4410;BME280;2218;51.408;7.208;2022-12-18T09:55:36;100745.25;;;18.04;23.46
4410;BME280;2218;51.408;7.208;2022-12-18T09:58:13;100751.34;;;18.05;22.82
4410;BME280;2218;51.408;7.208;2022-12-18T10:00:42;100751.34;;;18.05;23.47
4410;BME280;2218;51.408;7.208;2022-12-18T10:03:12;100752.22;;;18.05;23.10
4410;BME280;2218;51.408;7.208;2022-12-18T10:05:49;100742.56;;;18.06;22.84
4410;BME280;2218;51.408;7.208;2022-12-18T10:08:26;100745.19;;;18.06;23.15
4410;BME280;2218;51.408;7.208;2022-12-18T10:11:16;100735.56;;;18.05;22.88
4410;BME280;2218;51.408;7.208;2022-12-18T10:13:52;100732.03;;;18.06;22.96
4410;BME280;2218;51.408;7.208;2022-12-18T10:16:27;100713.63;;;18.06;23.25
4410;BME280;2218;51.408;7.208;2022-12-18T10:19:25;100700.47;;;18.06;23.05
4410;BME280;2218;51.408;7.208;2022-12-18T10:22:08;100696.91;;;18.07;22.97
4410;BME280;2218;51.408;7.208;2022-12-18T10:24:42;100687.25;;;18.07;23.14
4410;BME280;2218;51.408;7.208;2022-12-18T10:27:16;100691.66;;;18.07;22.78
4410;BME280;2218;51.408;7.208;2022-12-18T10:29:44;100690.72;;;18.08;23.34
4410;BME280;2218;51.408;7.208;2022-12-18T10:32:16;100694.19;;;18.08;23.13
4410;BME280;2218;51.408;7.208;2022-12-18T10:34:47;100682.81;;;18.08;23.28
4410;BME280;2218;51.408;7.208;2022-12-18T10:37:19;100681.88;;;18.09;22.88
4410;BME280;2218;51.408;7.208;2022-12-18T10:40:06;100674.00;;;18.09;22.84
4410;BME280;2218;51.408;7.208;2022-12-18T10:42:34;100668.75;;;18.09;23.08
4410;BME280;2218;51.408;7.208;2022-12-18T10:45:09;100662.63;;;18.08;22.98
4410;BME280;2218;51.408;7.208;2022-12-18T10:47:42;100664.31;;;18.09;23.22
4410;BME280;2218;51.408;7.208;2022-12-18T10:50:23;100660.84;;;18.09;22.97
4410;BME280;2218;51.408;7.208;2022-12-18T10:52:58;100655.59;;;18.09;22.81
4410;BME280;2218;51.408;7.208;2022-12-18T10:55:32;100664.31;;;18.09;23.02
4410;BME280;2218;51.408;7.208;2022-12-18T10:58:23;100659.94;;;18.10;23.04
4410;BME280;2218;51.408;7.208;2022-12-18T11:01:10;100659.06;;;18.09;22.94
4410;BME280;2218;51.408;7.208;2022-12-18T11:03:40;100654.69;;;18.10;22.99
4410;BME280;2218;51.408;7.208;2022-12-18T11:06:11;100642.44;;;18.09;23.00
4410;BME280;2218;51.408;7.208;2022-12-18T11:08:39;100648.53;;;18.09;22.87
4410;BME280;2218;51.408;7.208;2022-12-18T11:11:16;100647.69;;;18.09;22.94
4410;BME280;2218;51.408;7.208;2022-12-18T11:13:59;100650.31;;;18.09;23.13
4410;BME280;2218;51.408;7.208;2022-12-18T11:16:29;100642.44;;;18.09;22.83
4410;BME280;2218;51.408;7.208;2022-12-18T11:19:19;100637.16;;;18.09;23.05
4410;BME280;2218;51.408;7.208;2022-12-18T11:21:48;100640.72;;;18.08;22.90
4410;BME280;2218;51.408;7.208;2022-12-18T11:24:26;100636.31;;;18.08;22.80
4410;BME280;2218;51.408;7.208;2022-12-18T11:26:54;100631.91;;;18.09;23.31
4410;BME280;2218;51.408;7.208;2022-12-18T11:29:32;100638.91;;;18.10;22.74
4410;BME280;2218;51.408;7.208;2022-12-18T11:32:29;100629.28;;;18.09;23.02
4410;BME280;2218;51.408;7.208;2022-12-18T11:35:04;100620.53;;;18.08;22.98
4410;BME280;2218;51.408;7.208;2022-12-18T11:37:36;100620.53;;;18.08;22.96
4410;BME280;2218;51.408;7.208;2022-12-18T11:40:11;100613.50;;;18.09;22.90
4410;BME280;2218;51.408;7.208;2022-12-18T11:42:48;100608.22;;;18.09;22.86
4410;BME280;2218;51.408;7.208;2022-12-18T11:45:28;100608.19;;;18.11;22.88
4410;BME280;2218;51.408;7.208;2022-12-18T11:48:05;100606.44;;;18.09;22.83
4410;BME280;2218;51.408;7.208;2022-12-18T11:50:47;100591.53;;;18.10;22.75
4410;BME280;2218;51.408;7.208;2022-12-18T11:53:16;100579.28;;;18.09;22.55
4410;BME280;2218;51.408;7.208;2022-12-18T11:55:59;100574.03;;;18.09;22.98
4410;BME280;2218;51.408;7.208;2022-12-18T11:58:45;100570.50;;;18.10;22.61
4410;BME280;2218;51.408;7.208;2022-12-18T12:01:30;100559.09;;;18.09;22.63
4410;BME280;2218;51.408;7.208;2022-12-18T12:04:31;100559.97;;;18.10;22.82
4410;BME280;2218;51.408;7.208;2022-12-18T12:07:17;100562.59;;;18.10;22.88
4410;BME280;2218;51.408;7.208;2022-12-18T12:10:00;100558.25;;;18.09;22.83
4410;BME280;2218;51.408;7.208;2022-12-18T12:12:39;100555.63;;;18.09;22.81
4410;BME280;2218;51.408;7.208;2022-12-18T12:15:25;100553.84;;;18.09;22.81
4410;BME280;2218;51.408;7.208;2022-12-18T12:18:08;100559.09;;;18.09;22.88
4410;BME280;2218;51.408;7.208;2022-12-18T12:20:52;100563.50;;;18.09;22.46
4410;BME280;2218;51.408;7.208;2022-12-18T12:23:34;100565.25;;;18.10;22.72
4410;BME280;2218;51.408;7.208;2022-12-18T12:26:09;100560.88;;;18.09;22.84
4410;BME280;2218;51.408;7.208;2022-12-18T12:29:00;100565.25;;;18.10;22.72
4410;BME280;2218;51.408;7.208;2022-12-18T12:31:47;100559.09;;;18.09;22.78
4410;BME280;2218;51.408;7.208;2022-12-18T12:34:23;100558.25;;;18.09;22.63
4410;BME280;2218;51.408;7.208;2022-12-18T12:37:10;100548.56;;;18.09;22.61
4410;BME280;2218;51.408;7.208;2022-12-18T12:39:46;100546.88;;;18.08;22.72
4410;BME280;2218;51.408;7.208;2022-12-18T12:42:19;100538.16;;;18.08;22.64
4410;BME280;2218;51.408;7.208;2022-12-18T12:45:16;100545.09;;;18.09;22.88
4410;BME280;2218;51.408;7.208;2022-12-18T12:47:47;100543.41;;;18.08;22.72
4410;BME280;2218;51.408;7.208;2022-12-18T12:50:19;100536.34;;;18.08;22.56
4410;BME280;2218;51.408;7.208;2022-12-18T12:52:51;100539.84;;;18.09;22.50
4410;BME280;2218;51.408;7.208;2022-12-18T12:55:22;100540.78;;;18.08;22.54
4410;BME280;2218;51.408;7.208;2022-12-18T12:58:00;100532.88;;;18.08;22.68
4410;BME280;2218;51.408;7.208;2022-12-18T13:00:43;100543.41;;;18.08;22.39
4410;BME280;2218;51.408;7.208;2022-12-18T13:03:26;100540.69;;;18.09;22.95
4410;BME280;2218;51.408;7.208;2022-12-18T13:06:07;100540.78;;;18.08;22.75
4410;BME280;2218;51.408;7.208;2022-12-18T13:08:55;100539.00;;;18.08;22.43
4410;BME280;2218;51.408;7.208;2022-12-18T13:11:37;100537.22;;;18.09;22.74
4410;BME280;2218;51.408;7.208;2022-12-18T13:14:30;100530.25;;;18.08;22.62
4410;BME280;2218;51.408;7.208;2022-12-18T13:17:29;100530.25;;;18.08;22.73
4410;BME280;2218;51.408;7.208;2022-12-18T13:20:15;100523.22;;;18.08;22.57
4410;BME280;2218;51.408;7.208;2022-12-18T13:22:46;100523.28;;;18.07;22.72
4410;BME280;2218;51.408;7.208;2022-12-18T13:25:37;100518.03;;;18.07;22.65
4410;BME280;2218;51.408;7.208;2022-12-18T13:28:08;100512.78;;;18.07;22.56
4410;BME280;2218;51.408;7.208;2022-12-18T13:30:55;100528.56;;;18.07;22.56
4410;BME280;2218;51.408;7.208;2022-12-18T13:33:42;100529.50;;;18.06;22.67
4410;BME280;2218;51.408;7.208;2022-12-18T13:36:15;100523.38;;;18.05;22.64
4410;BME280;2218;51.408;7.208;2022-12-18T13:38:44;100525.13;;;18.05;22.96